createdAt,value
2022-11-19T00:00:47.907Z,8.1
2022-11-19T00:03:51.288Z,8
2022-11-19T00:06:47.901Z,8
2022-11-19T00:09:47.907Z,8
2022-11-19T00:12:47.891Z,7.9
2022-11-19T00:15:47.900Z,7.9
2022-11-19T00:18:47.891Z,7.9
2022-11-19T00:21:47.969Z,7.9
2022-11-19T00:24:47.901Z,7.8
2022-11-19T00:27:47.910Z,7.8
2022-11-19T00:30:48.743Z,7.7
2022-11-19T00:33:47.909Z,7.7
2022-11-19T00:36:47.904Z,7.7
2022-11-19T00:39:47.908Z,7.6
2022-11-19T00:42:47.907Z,7.6
2022-11-19T00:45:47.909Z,7.6
2022-11-19T00:48:47.899Z,7.6
2022-11-19T00:51:47.906Z,7.6
2022-11-19T00:54:47.900Z,7.6
2022-11-19T00:57:47.901Z,7.5
2022-11-19T01:00:47.925Z,7.5
2022-11-19T01:03:47.904Z,7.5
2022-11-19T01:06:47.901Z,7.5
2022-11-19T01:09:47.900Z,7.4
2022-11-19T01:12:47.902Z,7.4
2022-11-19T01:15:47.893Z,7.4
2022-11-19T01:18:47.894Z,7.3
2022-11-19T01:21:47.891Z,7.3
2022-11-19T01:24:47.894Z,7.3
2022-11-19T01:27:47.889Z,7.3
2022-11-19T01:30:47.888Z,7.3
2022-11-19T01:33:47.886Z,7.3
2022-11-19T01:36:47.886Z,7.2
2022-11-19T01:39:47.886Z,7.2
2022-11-19T01:42:47.887Z,7.2
2022-11-19T01:45:47.883Z,7.2
2022-11-19T01:48:47.878Z,7.2
2022-11-19T01:51:47.882Z,7.1
2022-11-19T01:54:47.882Z,7.1
2022-11-19T01:57:47.885Z,7
2022-11-19T02:00:47.882Z,7
2022-11-19T02:03:47.874Z,7
2022-11-19T02:06:47.875Z,7
2022-11-19T02:09:47.886Z,6.9
2022-11-19T02:15:47.871Z,6.9
2022-11-19T02:18:47.868Z,6.9
2022-11-19T02:21:47.866Z,6.9
2022-11-19T02:30:47.866Z,6.8
2022-11-19T02:33:47.865Z,6.7
2022-11-19T02:36:47.864Z,6.7
2022-11-19T02:39:47.864Z,6.7
2022-11-19T02:42:47.866Z,6.8
2022-11-19T02:45:47.858Z,6.8
2022-11-19T02:48:47.862Z,6.8
2022-11-19T02:51:47.913Z,6.8
2022-11-19T02:54:47.864Z,6.8
2022-11-19T02:57:47.865Z,6.8
2022-11-19T03:00:47.853Z,6.8
2022-11-19T03:03:47.858Z,6.8
2022-11-19T03:06:47.861Z,6.7
2022-11-19T03:09:47.861Z,6.7
2022-11-19T03:12:47.851Z,6.7
2022-11-19T03:15:47.857Z,6.7
2022-11-19T03:18:47.852Z,6.7
2022-11-19T03:21:47.861Z,6.7
2022-11-19T03:24:47.850Z,6.7
2022-11-19T03:27:47.852Z,6.7
2022-11-19T03:30:47.852Z,6.7
2022-11-19T03:33:47.852Z,6.7
2022-11-19T03:36:47.853Z,6.7
2022-11-19T03:39:47.851Z,6.7
2022-11-19T03:42:47.851Z,6.7
2022-11-19T03:45:47.846Z,6.7
2022-11-19T03:48:47.853Z,6.7
2022-11-19T03:51:47.858Z,6.7
2022-11-19T03:54:47.847Z,6.7
2022-11-19T03:57:47.853Z,6.7
2022-11-19T04:00:47.846Z,6.7
2022-11-19T04:03:47.845Z,6.7
2022-11-19T04:06:47.845Z,6.6
2022-11-19T04:09:47.843Z,6.6
2022-11-19T04:12:47.840Z,6.5
2022-11-19T04:15:47.845Z,6.5
2022-11-19T04:18:47.841Z,6.5
2022-11-19T04:21:47.847Z,6.4
2022-11-19T04:24:47.842Z,6.4
2022-11-19T04:27:47.839Z,6.3
2022-11-19T04:30:47.836Z,6.3
2022-11-19T04:33:47.839Z,6.3
2022-11-19T04:36:47.830Z,6.3
2022-11-19T04:39:47.836Z,6.3
2022-11-19T04:42:47.837Z,6.2
2022-11-19T04:45:47.832Z,6.2
2022-11-19T04:48:47.825Z,6.2
2022-11-19T04:51:47.832Z,6.2
2022-11-19T04:54:47.832Z,6.2
2022-11-19T04:57:47.828Z,6.2
2022-11-19T05:00:47.827Z,6.3
2022-11-19T05:03:47.827Z,6.3
2022-11-19T05:06:47.821Z,6.3
2022-11-19T05:09:47.812Z,6.3
2022-11-19T05:12:47.820Z,6.3
2022-11-19T05:15:47.814Z,6.3
2022-11-19T05:18:47.817Z,6.3
2022-11-19T05:21:47.820Z,6.3
2022-11-19T05:24:47.821Z,6.3
2022-11-19T05:27:47.828Z,6.3
2022-11-19T05:30:47.810Z,6.3
2022-11-19T05:33:47.812Z,6.3
2022-11-19T05:36:47.818Z,6.3
2022-11-19T05:39:47.808Z,6.3
2022-11-19T05:42:47.820Z,6.3
2022-11-19T05:45:47.808Z,6.3
2022-11-19T05:48:47.803Z,6.3
2022-11-19T05:51:47.802Z,6.3
2022-11-19T05:54:47.804Z,6.2
2022-11-19T05:57:47.804Z,6.2
2022-11-19T06:00:47.808Z,6.2
2022-11-19T06:03:47.799Z,6.2
2022-11-19T06:06:47.836Z,6.1
2022-11-19T06:09:47.806Z,6.1
2022-11-19T06:12:47.799Z,6.1
2022-11-19T06:15:47.797Z,6.1
2022-11-19T06:18:47.796Z,6.1
2022-11-19T06:21:47.798Z,6.1
2022-11-19T06:24:47.799Z,6.1
2022-11-19T06:27:47.796Z,6.1
2022-11-19T06:30:47.797Z,6.1
2022-11-19T06:33:47.794Z,6.1
2022-11-19T06:36:50.472Z,6.1
2022-11-19T06:39:47.806Z,6.1
2022-11-19T06:42:50.899Z,6.1
2022-11-19T06:45:47.807Z,6.1
2022-11-19T06:48:47.811Z,6.1
2022-11-19T06:51:47.807Z,6.1
2022-11-19T06:54:47.800Z,6.1
2022-11-19T06:57:47.801Z,6
2022-11-19T07:00:47.805Z,6
2022-11-19T07:03:47.793Z,6
2022-11-19T07:06:47.794Z,6
2022-11-19T07:09:47.796Z,6
2022-11-19T07:12:47.794Z,6
2022-11-19T07:15:47.787Z,6
2022-11-19T07:18:47.828Z,6
2022-11-19T07:21:47.787Z,6
2022-11-19T07:24:47.782Z,5.9
2022-11-19T07:27:47.784Z,5.9
2022-11-19T07:30:47.782Z,5.9
2022-11-19T07:33:47.783Z,5.9
2022-11-19T07:36:47.781Z,5.9
2022-11-19T07:39:47.779Z,5.9
2022-11-19T07:42:47.776Z,5.9
2022-11-19T07:45:47.776Z,5.9
2022-11-19T07:48:47.769Z,5.9
2022-11-19T07:51:47.782Z,5.8
2022-11-19T07:54:47.770Z,5.8
2022-11-19T07:57:47.770Z,5.8
2022-11-19T08:00:47.771Z,5.7
2022-11-19T08:03:50.702Z,5.7
2022-11-19T08:06:47.768Z,5.7
2022-11-19T08:09:47.759Z,5.6
2022-11-19T08:12:47.762Z,5.6
2022-11-19T08:15:47.758Z,5.6
2022-11-19T08:18:47.760Z,5.5
2022-11-19T08:21:47.790Z,5.5
2022-11-19T08:24:47.756Z,5.4
2022-11-19T08:27:47.755Z,5.4
2022-11-19T08:30:47.753Z,5.4
2022-11-19T08:33:47.773Z,5.4
2022-11-19T08:36:47.768Z,5.4
2022-11-19T08:39:47.763Z,5.4
2022-11-19T08:42:47.763Z,5.4
2022-11-19T08:45:47.758Z,5.4
2022-11-19T08:48:47.758Z,5.4
2022-11-19T08:51:47.755Z,5.5
2022-11-19T08:54:47.754Z,5.5
2022-11-19T08:57:47.760Z,5.5
2022-11-19T09:00:47.782Z,5.5
2022-11-19T09:03:47.756Z,5.5
2022-11-19T09:06:47.799Z,5.5
2022-11-19T09:09:47.758Z,5.5
2022-11-19T09:12:47.755Z,5.5
2022-11-19T09:15:47.750Z,5.5
2022-11-19T09:18:47.753Z,5.5
2022-11-19T09:21:47.753Z,5.5
2022-11-19T09:24:47.749Z,5.5
2022-11-19T09:27:47.747Z,5.5
2022-11-19T09:30:47.744Z,5.5
2022-11-19T09:33:47.744Z,5.5
2022-11-19T09:36:47.742Z,5.5
2022-11-19T09:42:47.739Z,5.5
2022-11-19T09:45:47.740Z,5.5
2022-11-19T09:48:47.735Z,5.5
2022-11-19T09:51:47.740Z,5.5
2022-11-19T09:54:47.739Z,5.5
2022-11-19T09:57:47.734Z,5.6
2022-11-19T10:00:47.739Z,5.5
2022-11-19T10:03:47.842Z,5.6
2022-11-19T10:06:47.732Z,5.6
2022-11-19T10:09:47.759Z,5.6
2022-11-19T10:12:47.731Z,5.6
2022-11-19T10:15:47.725Z,5.6
2022-11-19T10:18:47.737Z,5.6
2022-11-19T10:21:47.730Z,5.6
2022-11-19T10:24:47.730Z,5.6
2022-11-19T10:27:47.723Z,5.6
2022-11-19T10:30:47.721Z,5.6
2022-11-19T10:33:47.764Z,5.6
2022-11-19T10:36:47.728Z,5.6
2022-11-19T10:39:47.724Z,5.6
2022-11-19T10:42:47.760Z,5.6
2022-11-19T10:45:47.753Z,5.6
2022-11-19T10:48:47.751Z,5.5
2022-11-19T10:51:47.773Z,5.5
2022-11-19T10:54:47.759Z,5.5
2022-11-19T10:57:47.771Z,5.5
2022-11-19T11:00:47.776Z,5.5
2022-11-19T11:03:47.815Z,5.5
2022-11-19T11:09:47.768Z,5.6
2022-11-19T11:12:47.772Z,5.6
2022-11-19T11:15:47.760Z,5.6
2022-11-19T11:18:47.773Z,5.6
2022-11-19T11:21:47.767Z,5.6
2022-11-19T11:24:47.759Z,5.6
2022-11-19T11:27:47.768Z,5.6
2022-11-19T11:30:47.759Z,5.6
2022-11-19T11:33:47.754Z,5.6
2022-11-19T11:36:47.758Z,5.6
2022-11-19T11:39:47.753Z,5.6
2022-11-19T11:42:47.768Z,5.6
2022-11-19T11:45:47.745Z,5.6
2022-11-19T11:48:47.754Z,5.6
2022-11-19T11:51:47.755Z,5.6
2022-11-19T11:54:47.751Z,5.6
2022-11-19T11:57:47.747Z,5.6
2022-11-19T12:00:47.752Z,5.5
2022-11-19T12:03:54.820Z,5.5
2022-11-19T12:06:47.759Z,5.5
2022-11-19T12:09:47.753Z,5.5
2022-11-19T12:12:47.746Z,5.5
2022-11-19T12:15:47.749Z,5.5
2022-11-19T12:18:47.749Z,5.5
2022-11-19T12:21:47.749Z,5.5
2022-11-19T12:24:47.769Z,5.5
2022-11-19T12:27:47.757Z,5.5
2022-11-19T12:30:47.742Z,5.5
2022-11-19T12:33:47.752Z,5.5
2022-11-19T12:36:47.746Z,5.5
2022-11-19T12:39:47.740Z,5.5
2022-11-19T12:42:47.752Z,5.6
2022-11-19T12:45:47.746Z,5.5
2022-11-19T12:48:47.745Z,5.5
2022-11-19T12:51:47.746Z,5.5
2022-11-19T12:54:47.737Z,5.5
2022-11-19T12:57:47.743Z,5.5
2022-11-19T13:00:47.803Z,5.5
2022-11-19T13:03:47.738Z,5.5
2022-11-19T13:06:47.756Z,5.5
2022-11-19T13:09:47.735Z,5.5
2022-11-19T13:12:47.753Z,5.5
2022-11-19T13:15:47.742Z,5.5
2022-11-19T13:18:47.777Z,5.5
2022-11-19T13:21:47.737Z,5.5
2022-11-19T13:24:47.731Z,5.5
2022-11-19T13:27:47.731Z,5.5
2022-11-19T13:30:47.736Z,5.5
2022-11-19T13:33:47.723Z,5.5
2022-11-19T13:36:47.729Z,5.5
2022-11-19T13:39:47.725Z,5.5
2022-11-19T13:42:58.897Z,5.5
2022-11-19T13:45:47.726Z,5.5
2022-11-19T13:48:47.735Z,5.5
2022-11-19T13:51:47.723Z,5.5
2022-11-19T13:54:47.716Z,5.5
2022-11-19T13:57:47.727Z,5.5
2022-11-19T14:00:47.735Z,5.5
2022-11-19T14:03:47.725Z,5.5
2022-11-19T14:06:47.729Z,5.5
2022-11-19T14:09:47.730Z,5.5
2022-11-19T14:12:47.724Z,5.4
2022-11-19T14:15:47.727Z,5.4
2022-11-19T14:18:51.609Z,5.4
2022-11-19T14:21:47.712Z,5.4
2022-11-19T14:24:47.713Z,5.4
2022-11-19T14:27:47.725Z,5.4
2022-11-19T14:30:47.717Z,5.4
2022-11-19T14:33:47.735Z,5.4
2022-11-19T14:36:47.715Z,5.4
2022-11-19T14:39:47.714Z,5.4
2022-11-19T14:42:47.713Z,5.4
2022-11-19T14:45:47.708Z,5.4
2022-11-19T14:48:47.744Z,5.4
2022-11-19T14:51:47.702Z,5.4
2022-11-19T14:54:47.721Z,5.4
2022-11-19T14:57:47.703Z,5.3
2022-11-19T15:00:47.704Z,5.4
2022-11-19T15:03:47.808Z,5.4
2022-11-19T15:06:47.713Z,5.4
2022-11-19T15:09:47.699Z,5.4
2022-11-19T15:12:47.703Z,5.4
2022-11-19T15:15:47.696Z,5.4
2022-11-19T15:18:47.707Z,5.4
2022-11-19T15:21:47.708Z,5.4
2022-11-19T15:24:47.773Z,5.3
2022-11-19T15:27:47.693Z,5.3
2022-11-19T15:30:47.697Z,5.3
2022-11-19T15:33:47.693Z,5.3
2022-11-19T15:36:47.688Z,5.3
2022-11-19T15:39:47.699Z,5.3
2022-11-19T15:42:47.709Z,5.3
2022-11-19T15:45:47.708Z,5.3
2022-11-19T15:48:47.698Z,5.3
2022-11-19T15:51:47.696Z,5.3
2022-11-19T15:54:47.695Z,5.3
2022-11-19T15:57:50.175Z,5.3
2022-11-19T16:00:47.695Z,5.3
2022-11-19T16:03:47.696Z,5.3
2022-11-19T16:06:47.691Z,5.3
2022-11-19T16:09:47.776Z,5.3
2022-11-19T16:12:47.787Z,5.3
2022-11-19T16:15:47.797Z,5.2
2022-11-19T16:18:47.780Z,5.2
2022-11-19T16:21:47.786Z,5.2
2022-11-19T16:24:47.771Z,5.2
2022-11-19T16:27:47.783Z,5.2
2022-11-19T16:30:47.818Z,5.2
2022-11-19T16:33:47.773Z,5.2
2022-11-19T16:36:47.768Z,5.2
2022-11-19T16:39:47.771Z,5.2
2022-11-19T16:42:47.766Z,5.2
2022-11-19T16:45:47.761Z,5.2
2022-11-19T16:48:47.763Z,5.1
2022-11-19T16:51:47.849Z,5.1
2022-11-19T16:54:47.862Z,5.1
2022-11-19T16:57:47.865Z,5.1
2022-11-19T17:00:47.862Z,5.1
2022-11-19T17:03:47.845Z,5.1
2022-11-19T17:06:47.851Z,5.1
2022-11-19T17:09:47.917Z,5.1
2022-11-19T17:12:47.846Z,5.1
2022-11-19T17:15:47.851Z,5.1
2022-11-19T17:18:47.849Z,5
2022-11-19T17:21:47.877Z,5
2022-11-19T17:24:47.851Z,5
2022-11-19T17:27:47.853Z,5
2022-11-19T17:30:47.843Z,5
2022-11-19T17:33:47.909Z,5
2022-11-19T17:36:47.912Z,5
2022-11-19T17:39:47.912Z,5
2022-11-19T17:42:47.910Z,5
2022-11-19T17:45:47.905Z,5
2022-11-19T17:48:47.898Z,5
2022-11-19T17:51:47.956Z,5
2022-11-19T17:54:47.896Z,5
2022-11-19T17:57:47.903Z,5
2022-11-19T18:00:47.901Z,5
2022-11-19T18:03:47.891Z,5
2022-11-19T18:06:47.882Z,4.9
2022-11-19T18:09:47.883Z,5
2022-11-19T18:12:47.878Z,4.9
2022-11-19T18:15:47.887Z,4.9
2022-11-19T18:18:47.870Z,4.9
2022-11-19T18:21:47.878Z,4.9
2022-11-19T18:24:47.882Z,4.9
2022-11-19T18:27:47.934Z,4.9
2022-11-19T18:30:47.869Z,4.9
2022-11-19T18:33:47.888Z,4.9
2022-11-19T18:36:47.862Z,4.9
2022-11-19T18:39:47.869Z,4.9
2022-11-19T18:42:47.857Z,4.9
2022-11-19T18:45:47.860Z,4.8
2022-11-19T18:48:47.857Z,4.8
2022-11-19T18:51:47.852Z,4.8
2022-11-19T18:54:47.861Z,4.8
2022-11-19T18:57:47.857Z,4.8
2022-11-19T19:00:47.863Z,4.8
2022-11-19T19:03:47.851Z,4.8
2022-11-19T19:06:47.854Z,4.8
2022-11-19T19:09:47.852Z,4.8
2022-11-19T19:12:47.850Z,4.8
2022-11-19T19:18:47.848Z,4.8
2022-11-19T19:21:47.845Z,4.8
2022-11-19T19:24:47.862Z,4.7
2022-11-19T19:27:47.845Z,4.7
2022-11-19T19:30:47.843Z,4.7
2022-11-19T19:33:47.842Z,4.7
2022-11-19T19:36:52.860Z,4.8
2022-11-19T19:39:47.848Z,4.8
2022-11-19T19:42:47.847Z,4.8
2022-11-19T19:45:47.843Z,4.7
2022-11-19T19:48:47.864Z,4.8
2022-11-19T19:51:47.869Z,4.7
2022-11-19T19:54:47.844Z,4.7
2022-11-19T19:57:47.848Z,4.7
2022-11-19T20:00:47.851Z,4.7
2022-11-19T20:03:51.723Z,4.7
2022-11-19T20:06:47.845Z,4.7
2022-11-19T20:09:47.841Z,4.7
2022-11-19T20:12:47.839Z,4.7
2022-11-19T20:15:47.852Z,4.7
2022-11-19T20:18:47.833Z,4.7
2022-11-19T20:21:47.839Z,4.7
2022-11-19T20:24:47.833Z,4.7
2022-11-19T20:27:47.826Z,4.7
2022-11-19T20:30:47.836Z,4.7
2022-11-19T20:33:47.822Z,4.7
2022-11-19T20:36:47.890Z,4.7
2022-11-19T20:39:47.859Z,4.7
2022-11-19T20:42:47.820Z,4.7
2022-11-19T20:48:47.814Z,4.7
2022-11-19T20:51:47.844Z,4.7
2022-11-19T20:54:47.817Z,4.7
2022-11-19T20:57:47.815Z,4.7
2022-11-19T21:00:47.817Z,4.7
2022-11-19T21:03:47.814Z,4.6
2022-11-19T21:06:47.812Z,4.6
2022-11-19T21:09:47.811Z,4.6
2022-11-19T21:12:47.808Z,4.7
2022-11-19T21:15:47.813Z,4.6
2022-11-19T21:18:47.812Z,4.6
2022-11-19T21:21:47.825Z,4.6
2022-11-19T21:24:47.802Z,4.6
2022-11-19T21:27:47.798Z,4.6
2022-11-19T21:30:47.807Z,4.6
2022-11-19T21:33:47.806Z,4.6
2022-11-19T21:36:47.809Z,4.6
2022-11-19T21:39:47.806Z,4.6
2022-11-19T21:42:47.800Z,4.6
2022-11-19T21:45:47.809Z,4.6
2022-11-19T21:48:47.811Z,4.6
2022-11-19T21:51:47.804Z,4.6
2022-11-19T21:54:47.810Z,4.6
2022-11-19T21:57:47.803Z,4.6
2022-11-19T22:00:47.834Z,4.5
2022-11-19T22:03:47.811Z,4.5
2022-11-19T22:06:47.799Z,4.5
2022-11-19T22:09:47.798Z,4.5
2022-11-19T22:12:47.810Z,4.5
2022-11-19T22:15:47.804Z,4.5
2022-11-19T22:18:47.806Z,4.5
2022-11-19T22:21:47.798Z,4.5
2022-11-19T22:24:47.792Z,4.5
2022-11-19T22:27:47.798Z,4.5
2022-11-19T22:30:47.811Z,4.5
2022-11-19T22:33:47.828Z,4.4
2022-11-19T22:36:47.796Z,4.4
2022-11-19T22:39:47.799Z,4.4
2022-11-19T22:42:47.810Z,4.4
2022-11-19T22:45:47.821Z,4.4
2022-11-19T22:48:47.808Z,4.4
2022-11-19T22:51:47.803Z,4.4
2022-11-19T22:54:47.802Z,4.4
2022-11-19T22:57:47.808Z,4.4
2022-11-19T23:00:47.882Z,4.4
2022-11-19T23:03:47.796Z,4.4
2022-11-19T23:06:47.803Z,4.4
2022-11-19T23:09:47.804Z,4.4
2022-11-19T23:12:47.799Z,4.4
2022-11-19T23:15:47.803Z,4.4
2022-11-19T23:18:47.797Z,4.4
2022-11-19T23:21:47.805Z,4.4
2022-11-19T23:24:47.802Z,4.4
2022-11-19T23:27:47.804Z,4.4
2022-11-19T23:30:47.902Z,4.4
2022-11-19T23:33:47.938Z,4.4
2022-11-19T23:36:47.925Z,4.4
2022-11-19T23:39:47.919Z,4.4
2022-11-19T23:42:51.799Z,4.4
2022-11-19T23:45:47.906Z,4.4
2022-11-19T23:48:47.913Z,4.4
2022-11-19T23:51:47.909Z,4.4
2022-11-19T23:54:47.905Z,4.4
2022-11-19T23:57:47.904Z,4.4
